sensor_id;sensor_type;location;lat;lon;timestamp;pressure;altitude;pressure_sealevel;temperature;humidity
74627;BME280;63132;52.268;5.192;2023-07-20T00:00:00;101399.88;;;18.10;70.50
74627;BME280;63132;52.268;5.192;2023-07-20T00:02:26;101386.09;;;18.31;70.04
74627;BME280;63132;52.268;5.192;2023-07-20T00:04:51;101395.06;;;18.40;70.10
74627;BME280;63132;52.268;5.192;2023-07-20T00:07:17;101390.66;;;18.31;70.35
74627;BME280;63132;52.268;5.192;2023-07-20T00:09:42;101397.88;;;18.30;69.79
74627;BME280;63132;52.268;5.192;2023-07-20T00:12:08;101393.59;;;18.46;69.74
74627;BME280;63132;52.268;5.192;2023-07-20T00:14:33;101395.94;;;18.49;69.40
74627;BME280;63132;52.268;5.192;2023-07-20T00:16:58;101397.38;;;18.35;69.90
74627;BME280;63132;52.268;5.192;2023-07-20T00:19:25;101401.72;;;18.28;70.07
74627;BME280;63132;52.268;5.192;2023-07-20T00:21:51;101397.50;;;18.25;70.19
74627;BME280;63132;52.268;5.192;2023-07-20T00:24:17;101397.00;;;18.03;70.92
74627;BME280;63132;52.268;5.192;2023-07-20T00:26:43;101395.25;;;17.94;70.90
74627;BME280;63132;52.268;5.192;2023-07-20T00:29:08;101388.81;;;17.86;70.87
74627;BME280;63132;52.268;5.192;2023-07-20T00:31:34;101397.44;;;17.72;71.50
74627;BME280;63132;52.268;5.192;2023-07-20T00:34:02;101392.81;;;17.82;70.92
74627;BME280;63132;52.268;5.192;2023-07-20T00:36:28;101383.84;;;17.73;71.21
74627;BME280;63132;52.268;5.192;2023-07-20T00:38:53;101385.53;;;17.74;71.03
74627;BME280;63132;52.268;5.192;2023-07-20T00:41:18;101383.69;;;17.57;71.51
74627;BME280;63132;52.268;5.192;2023-07-20T00:43:43;101386.53;;;17.55;71.84
74627;BME280;63132;52.268;5.192;2023-07-20T00:46:09;101383.13;;;17.45;71.82
74627;BME280;63132;52.268;5.192;2023-07-20T00:48:34;101390.25;;;17.54;72.03
74627;BME280;63132;52.268;5.192;2023-07-20T00:51:01;101390.53;;;17.51;71.97
74627;BME280;63132;52.268;5.192;2023-07-20T00:53:27;101388.88;;;17.50;72.09
74627;BME280;63132;52.268;5.192;2023-07-20T00:55:52;101392.69;;;17.47;72.00
74627;BME280;63132;52.268;5.192;2023-07-20T00:58:18;101384.41;;;17.41;72.24
74627;BME280;63132;52.268;5.192;2023-07-20T01:00:44;101381.03;;;17.38;72.56
74627;BME280;63132;52.268;5.192;2023-07-20T01:03:09;101381.63;;;17.32;72.61
74627;BME280;63132;52.268;5.192;2023-07-20T01:06:08;101378.25;;;17.30;72.80
74627;BME280;63132;52.268;5.192;2023-07-20T01:11:54;101382.56;;;17.23;72.68
74627;BME280;63132;52.268;5.192;2023-07-20T01:14:23;101384.16;;;17.15;73.07
74627;BME280;63132;52.268;5.192;2023-07-20T01:16:50;101387.56;;;17.18;73.17
74627;BME280;63132;52.268;5.192;2023-07-20T01:19:18;101393.44;;;17.03;73.00
74627;BME280;63132;52.268;5.192;2023-07-20T01:27:31;101396.66;;;17.07;72.78
74627;BME280;63132;52.268;5.192;2023-07-20T01:30:16;101387.47;;;16.99;73.12
74627;BME280;63132;52.268;5.192;2023-07-20T01:32:47;101389.25;;;16.90;73.31
74627;BME280;63132;52.268;5.192;2023-07-20T01:35:15;101392.94;;;16.89;73.44
74627;BME280;63132;52.268;5.192;2023-07-20T01:37:43;101394.06;;;16.87;73.45
74627;BME280;63132;52.268;5.192;2023-07-20T01:40:10;101398.16;;;16.91;73.54
74627;BME280;63132;52.268;5.192;2023-07-20T01:42:35;101395.63;;;16.89;73.69
74627;BME280;63132;52.268;5.192;2023-07-20T01:45:01;101399.13;;;16.90;73.38
74627;BME280;63132;52.268;5.192;2023-07-20T01:47:26;101396.91;;;16.85;73.33
74627;BME280;63132;52.268;5.192;2023-07-20T01:49:52;101395.22;;;16.84;73.57
74627;BME280;63132;52.268;5.192;2023-07-20T01:52:17;101389.56;;;16.87;73.55
74627;BME280;63132;52.268;5.192;2023-07-20T01:54:42;101395.84;;;16.78;73.08
74627;BME280;63132;52.268;5.192;2023-07-20T01:57:07;101388.75;;;16.77;73.02
74627;BME280;63132;52.268;5.192;2023-07-20T01:59:33;101392.50;;;16.66;72.13
74627;BME280;63132;52.268;5.192;2023-07-20T02:01:58;101392.69;;;16.54;72.60
74627;BME280;63132;52.268;5.192;2023-07-20T02:04:24;101394.81;;;16.51;72.39
74627;BME280;63132;52.268;5.192;2023-07-20T02:06:49;101396.25;;;16.45;72.61
74627;BME280;63132;52.268;5.192;2023-07-20T02:09:14;101389.50;;;16.31;72.26
74627;BME280;63132;52.268;5.192;2023-07-20T02:11:39;101390.94;;;16.25;72.47
74627;BME280;63132;52.268;5.192;2023-07-20T02:14:05;101392.69;;;16.16;72.54
74627;BME280;63132;52.268;5.192;2023-07-20T02:16:30;101392.81;;;16.15;72.58
74627;BME280;63132;52.268;5.192;2023-07-20T02:18:55;101392.16;;;16.03;72.62
74627;BME280;63132;52.268;5.192;2023-07-20T02:21:22;101396.66;;;16.02;72.74
74627;BME280;63132;52.268;5.192;2023-07-20T02:23:48;101398.50;;;16.02;72.78
74627;BME280;63132;52.268;5.192;2023-07-20T02:26:13;101399.75;;;15.97;72.66
74627;BME280;63132;52.268;5.192;2023-07-20T02:28:39;101397.94;;;15.98;72.56
74627;BME280;63132;52.268;5.192;2023-07-20T02:31:04;101398.34;;;15.93;72.82
74627;BME280;63132;52.268;5.192;2023-07-20T02:33:29;101393.84;;;15.94;72.81
74627;BME280;63132;52.268;5.192;2023-07-20T02:35:54;101394.56;;;15.86;72.87
74627;BME280;63132;52.268;5.192;2023-07-20T02:38:20;101397.22;;;15.86;72.77
74627;BME280;63132;52.268;5.192;2023-07-20T02:40:45;101396.38;;;15.76;72.68
74627;BME280;63132;52.268;5.192;2023-07-20T02:43:11;101400.94;;;15.75;72.61
74627;BME280;63132;52.268;5.192;2023-07-20T02:45:39;101394.97;;;15.71;72.64
74627;BME280;63132;52.268;5.192;2023-07-20T02:48:05;101392.88;;;15.65;72.40
74627;BME280;63132;52.268;5.192;2023-07-20T02:50:33;101401.78;;;15.56;72.69
74627;BME280;63132;52.268;5.192;2023-07-20T02:52:58;101403.75;;;15.54;72.76
74627;BME280;63132;52.268;5.192;2023-07-20T02:55:23;101398.94;;;15.47;72.98
74627;BME280;63132;52.268;5.192;2023-07-20T02:57:49;101407.97;;;15.46;72.91
74627;BME280;63132;52.268;5.192;2023-07-20T03:00:14;101406.00;;;15.38;72.68
74627;BME280;63132;52.268;5.192;2023-07-20T03:02:41;101410.34;;;15.30;72.59
74627;BME280;63132;52.268;5.192;2023-07-20T03:05:06;101418.09;;;15.23;72.70
74627;BME280;63132;52.268;5.192;2023-07-20T03:07:32;101413.72;;;15.12;72.94
74627;BME280;63132;52.268;5.192;2023-07-20T03:09:57;101420.75;;;15.13;73.07
74627;BME280;63132;52.268;5.192;2023-07-20T03:12:23;101423.88;;;15.08;73.30
74627;BME280;63132;52.268;5.192;2023-07-20T03:14:49;101427.38;;;15.09;73.15
74627;BME280;63132;52.268;5.192;2023-07-20T03:17:15;101422.03;;;15.09;72.96
74627;BME280;63132;52.268;5.192;2023-07-20T03:19:40;101428.22;;;14.99;72.92
74627;BME280;63132;52.268;5.192;2023-07-20T03:22:05;101438.06;;;14.99;73.01
74627;BME280;63132;52.268;5.192;2023-07-20T03:24:31;101426.06;;;14.93;73.17
74627;BME280;63132;52.268;5.192;2023-07-20T03:26:56;101432.13;;;14.95;72.94
74627;BME280;63132;52.268;5.192;2023-07-20T03:29:21;101434.66;;;14.87;73.01
74627;BME280;63132;52.268;5.192;2023-07-20T03:31:46;101441.69;;;14.88;73.21
74627;BME280;63132;52.268;5.192;2023-07-20T03:34:13;101442.94;;;14.84;73.21
74627;BME280;63132;52.268;5.192;2023-07-20T03:36:38;101440.44;;;14.92;73.32
74627;BME280;63132;52.268;5.192;2023-07-20T03:39:03;101432.94;;;14.86;73.06
74627;BME280;63132;52.268;5.192;2023-07-20T03:41:28;101439.75;;;14.90;73.06
74627;BME280;63132;52.268;5.192;2023-07-20T03:43:54;101443.53;;;14.87;72.98
74627;BME280;63132;52.268;5.192;2023-07-20T03:46:19;101450.31;;;14.91;73.03
74627;BME280;63132;52.268;5.192;2023-07-20T03:48:45;101444.13;;;14.91;72.93
74627;BME280;63132;52.268;5.192;2023-07-20T03:51:10;101441.88;;;14.96;72.94
74627;BME280;63132;52.268;5.192;2023-07-20T03:53:35;101446.81;;;14.91;73.07
74627;BME280;63132;52.268;5.192;2023-07-20T03:56:01;101442.59;;;14.98;73.00
74627;BME280;63132;52.268;5.192;2023-07-20T03:58:26;101445.66;;;14.94;72.92
74627;BME280;63132;52.268;5.192;2023-07-20T04:00:51;101442.59;;;14.98;72.93
74627;BME280;63132;52.268;5.192;2023-07-20T04:03:18;101442.84;;;14.95;72.96
74627;BME280;63132;52.268;5.192;2023-07-20T04:05:44;101453.31;;;14.98;73.08
74627;BME280;63132;52.268;5.192;2023-07-20T04:08:09;101448.09;;;15.07;72.88
74627;BME280;63132;52.268;5.192;2023-07-20T04:10:36;101444.84;;;15.03;72.81
74627;BME280;63132;52.268;5.192;2023-07-20T04:13:01;101445.16;;;15.10;72.73
74627;BME280;63132;52.268;5.192;2023-07-20T04:15:27;101450.06;;;15.05;72.53
74627;BME280;63132;52.268;5.192;2023-07-20T04:17:52;101448.09;;;15.07;72.64
74627;BME280;63132;52.268;5.192;2023-07-20T04:20:17;101446.41;;;15.06;72.45
74627;BME280;63132;52.268;5.192;2023-07-20T04:22:43;101446.41;;;15.06;72.67
74627;BME280;63132;52.268;5.192;2023-07-20T04:25:08;101452.75;;;15.05;72.46
74627;BME280;63132;52.268;5.192;2023-07-20T04:27:35;101457.00;;;15.07;72.38
74627;BME280;63132;52.268;5.192;2023-07-20T04:30:00;101456.13;;;15.07;72.42
74627;BME280;63132;52.268;5.192;2023-07-20T04:32:26;101460.66;;;15.06;72.53
74627;BME280;63132;52.268;5.192;2023-07-20T04:34:51;101462.22;;;15.09;72.34
74627;BME280;63132;52.268;5.192;2023-07-20T04:37:16;101472.22;;;15.07;72.27
74627;BME280;63132;52.268;5.192;2023-07-20T04:39:41;101474.34;;;15.13;72.35
74627;BME280;63132;52.268;5.192;2023-07-20T04:42:07;101474.50;;;15.11;72.10
74627;BME280;63132;52.268;5.192;2023-07-20T04:44:32;101471.69;;;15.13;72.38
74627;BME280;63132;52.268;5.192;2023-07-20T04:46:57;101474.50;;;15.11;72.40
74627;BME280;63132;52.268;5.192;2023-07-20T04:49:23;101469.84;;;15.13;72.50
74627;BME280;63132;52.268;5.192;2023-07-20T04:51:48;101481.00;;;15.19;72.40
74627;BME280;63132;52.268;5.192;2023-07-20T04:54:13;101482.28;;;15.24;72.43
74627;BME280;63132;52.268;5.192;2023-07-20T04:56:39;101484.13;;;15.24;72.45
74627;BME280;63132;52.268;5.192;2023-07-20T04:59:04;101482.19;;;15.36;72.63
74627;BME280;63132;52.268;5.192;2023-07-20T05:01:29;101480.78;;;15.42;72.59
74627;BME280;63132;52.268;5.192;2023-07-20T05:03:54;101478.53;;;15.57;72.35
74627;BME280;63132;52.268;5.192;2023-07-20T05:06:20;101476.41;;;15.60;72.36
74627;BME280;63132;52.268;5.192;2023-07-20T05:08:45;101477.28;;;15.71;72.42
74627;BME280;63132;52.268;5.192;2023-07-20T05:11:11;101470.34;;;15.68;72.39
74627;BME280;63132;52.268;5.192;2023-07-20T05:13:37;101476.59;;;15.79;72.42
74627;BME280;63132;52.268;5.192;2023-07-20T05:16:02;101481.38;;;15.95;72.50
74627;BME280;63132;52.268;5.192;2023-07-20T05:18:28;101469.25;;;16.01;72.76
74627;BME280;63132;52.268;5.192;2023-07-20T05:20:53;101470.38;;;16.18;72.72
74627;BME280;63132;52.268;5.192;2023-07-20T05:23:20;101474.00;;;16.27;72.35
74627;BME280;63132;52.268;5.192;2023-07-20T05:25:46;101475.41;;;16.41;72.52
74627;BME280;63132;52.268;5.192;2023-07-20T05:28:11;101476.97;;;16.43;71.59
74627;BME280;63132;52.268;5.192;2023-07-20T05:30:37;101470.44;;;16.84;72.03
74627;BME280;63132;52.268;5.192;2023-07-20T05:33:02;101474.88;;;17.03;71.72
74627;BME280;63132;52.268;5.192;2023-07-20T05:35:27;101470.19;;;17.15;71.06
74627;BME280;63132;52.268;5.192;2023-07-20T05:37:53;101476.38;;;17.26;71.00
74627;BME280;63132;52.268;5.192;2023-07-20T05:40:18;101486.06;;;17.37;70.62
74627;BME280;63132;52.268;5.192;2023-07-20T05:42:47;101480.91;;;17.44;70.43
74627;BME280;63132;52.268;5.192;2023-07-20T05:45:14;101487.31;;;17.61;69.86
74627;BME280;63132;52.268;5.192;2023-07-20T05:47:41;101479.16;;;17.71;70.03
74627;BME280;63132;52.268;5.192;2023-07-20T05:50:07;101480.47;;;17.85;68.14
74627;BME280;63132;52.268;5.192;2023-07-20T05:52:32;101480.84;;;17.90;68.01
74627;BME280;63132;52.268;5.192;2023-07-20T05:54:58;101476.78;;;17.86;67.06
74627;BME280;63132;52.268;5.192;2023-07-20T05:57:23;101473.00;;;17.97;65.93
74627;BME280;63132;52.268;5.192;2023-07-20T05:59:48;101472.22;;;18.05;65.48
74627;BME280;63132;52.268;5.192;2023-07-20T06:02:14;101474.06;;;18.04;64.92
74627;BME280;63132;52.268;5.192;2023-07-20T06:04:39;101475.69;;;18.15;63.76
74627;BME280;63132;52.268;5.192;2023-07-20T06:07:05;101475.28;;;18.28;63.75
74627;BME280;63132;52.268;5.192;2023-07-20T06:09:32;101475.03;;;18.40;63.79
74627;BME280;63132;52.268;5.192;2023-07-20T06:11:58;101474.16;;;18.66;63.32
74627;BME280;63132;52.268;5.192;2023-07-20T06:14:23;101485.94;;;18.65;62.97
74627;BME280;63132;52.268;5.192;2023-07-20T06:16:48;101484.47;;;18.71;61.46
74627;BME280;63132;52.268;5.192;2023-07-20T06:19:14;101487.03;;;18.27;60.00
74627;BME280;63132;52.268;5.192;2023-07-20T06:21:39;101491.38;;;18.46;59.85
74627;BME280;63132;52.268;5.192;2023-07-20T06:24:05;101488.28;;;18.60;58.47
74627;BME280;63132;52.268;5.192;2023-07-20T06:26:30;101491.28;;;18.56;58.72
74627;BME280;63132;52.268;5.192;2023-07-20T06:28:56;101490.38;;;18.48;58.06
74627;BME280;63132;52.268;5.192;2023-07-20T06:31:21;101491.97;;;18.58;57.42
74627;BME280;63132;52.268;5.192;2023-07-20T06:33:47;101495.13;;;18.80;57.54
74627;BME280;63132;52.268;5.192;2023-07-20T06:36:12;101503.78;;;18.66;57.21
74627;BME280;63132;52.268;5.192;2023-07-20T06:38:38;101492.78;;;19.21;56.49
74627;BME280;63132;52.268;5.192;2023-07-20T06:41:03;101492.28;;;18.90;56.44
74627;BME280;63132;52.268;5.192;2023-07-20T06:43:29;101489.47;;;19.00;56.11
74627;BME280;63132;52.268;5.192;2023-07-20T06:45:54;101492.16;;;19.00;54.65
74627;BME280;63132;52.268;5.192;2023-07-20T06:48:21;101491.59;;;19.15;55.43
74627;BME280;63132;52.268;5.192;2023-07-20T06:50:46;101493.72;;;19.11;54.36
74627;BME280;63132;52.268;5.192;2023-07-20T06:53:11;101498.44;;;19.09;54.77
74627;BME280;63132;52.268;5.192;2023-07-20T06:55:37;101497.53;;;19.35;54.86
74627;BME280;63132;52.268;5.192;2023-07-20T06:58:02;101505.50;;;19.54;53.07
74627;BME280;63132;52.268;5.192;2023-07-20T07:00:28;101505.06;;;19.83;53.08
74627;BME280;63132;52.268;5.192;2023-07-20T07:02:53;101501.16;;;19.69;52.37
74627;BME280;63132;52.268;5.192;2023-07-20T07:05:19;101502.69;;;19.88;51.26
74627;BME280;63132;52.268;5.192;2023-07-20T07:07:44;101503.22;;;20.17;50.95
74627;BME280;63132;52.268;5.192;2023-07-20T07:10:10;101509.28;;;20.28;49.33
74627;BME280;63132;52.268;5.192;2023-07-20T07:12:35;101508.28;;;20.29;50.09
74627;BME280;63132;52.268;5.192;2023-07-20T07:15:04;101509.13;;;20.29;48.95
74627;BME280;63132;52.268;5.192;2023-07-20T07:17:31;101513.00;;;20.35;48.28
74627;BME280;63132;52.268;5.192;2023-07-20T07:19:58;101501.47;;;20.58;47.85
74627;BME280;63132;52.268;5.192;2023-07-20T07:22:23;101508.28;;;20.20;49.29
74627;BME280;63132;52.268;5.192;2023-07-20T07:24:48;101510.44;;;19.92;50.68
74627;BME280;63132;52.268;5.192;2023-07-20T07:27:14;101508.25;;;19.95;50.50
74627;BME280;63132;52.268;5.192;2023-07-20T07:29:42;101501.31;;;20.01;51.60
74627;BME280;63132;52.268;5.192;2023-07-20T07:32:09;101510.56;;;19.65;50.96
74627;BME280;63132;52.268;5.192;2023-07-20T07:34:35;101497.13;;;19.90;49.92
74627;BME280;63132;52.268;5.192;2023-07-20T07:37:00;101506.81;;;19.33;51.68
74627;BME280;63132;52.268;5.192;2023-07-20T07:39:26;101500.09;;;19.45;50.70
74627;BME280;63132;52.268;5.192;2023-07-20T07:41:51;101502.31;;;19.58;51.12
74627;BME280;63132;52.268;5.192;2023-07-20T07:44:18;101506.72;;;19.68;49.63
74627;BME280;63132;52.268;5.192;2023-07-20T07:46:43;101504.34;;;19.73;51.06
74627;BME280;63132;52.268;5.192;2023-07-20T07:49:08;101515.28;;;19.63;49.47
74627;BME280;63132;52.268;5.192;2023-07-20T07:51:34;101517.66;;;19.58;48.94
74627;BME280;63132;52.268;5.192;2023-07-20T07:53:59;101515.31;;;19.71;50.01
74627;BME280;63132;52.268;5.192;2023-07-20T07:56:24;101509.09;;;20.04;49.37
74627;BME280;63132;52.268;5.192;2023-07-20T07:58:50;101519.22;;;20.02;47.62
74627;BME280;63132;52.268;5.192;2023-07-20T08:01:17;101517.72;;;19.91;47.45
74627;BME280;63132;52.268;5.192;2023-07-20T08:03:44;101510.63;;;19.98;46.37
74627;BME280;63132;52.268;5.192;2023-07-20T08:06:12;101517.00;;;19.81;47.87
74627;BME280;63132;52.268;5.192;2023-07-20T08:08:38;101523.94;;;19.83;46.30
74627;BME280;63132;52.268;5.192;2023-07-20T08:11:04;101528.50;;;19.83;47.55
74627;BME280;63132;52.268;5.192;2023-07-20T08:13:29;101519.22;;;20.02;46.77
74627;BME280;63132;52.268;5.192;2023-07-20T08:15:55;101525.78;;;19.74;47.62
74627;BME280;63132;52.268;5.192;2023-07-20T08:18:20;101511.63;;;20.06;47.77
74627;BME280;63132;52.268;5.192;2023-07-20T08:20:46;101507.09;;;20.23;47.46
74627;BME280;63132;52.268;5.192;2023-07-20T08:23:13;101514.16;;;20.24;46.37
74627;BME280;63132;52.268;5.192;2023-07-20T08:25:39;101513.53;;;20.14;46.73
74627;BME280;63132;52.268;5.192;2023-07-20T08:28:13;101514.16;;;20.24;48.42
74627;BME280;63132;52.268;5.192;2023-07-20T08:30:47;101513.00;;;20.18;47.13
74627;BME280;63132;52.268;5.192;2023-07-20T08:33:14;101514.34;;;20.31;47.45
74627;BME280;63132;52.268;5.192;2023-07-20T08:35:39;101512.31;;;20.33;46.67
74627;BME280;63132;52.268;5.192;2023-07-20T08:38:05;101514.19;;;20.41;47.05
74627;BME280;63132;52.268;5.192;2023-07-20T08:40:33;101525.31;;;20.54;47.28
74627;BME280;63132;52.268;5.192;2023-07-20T08:42:59;101516.16;;;20.55;46.72
74627;BME280;63132;52.268;5.192;2023-07-20T08:45:28;101515.13;;;20.73;46.32
74627;BME280;63132;52.268;5.192;2023-07-20T08:47:58;101516.06;;;21.05;45.57
74627;BME280;63132;52.268;5.192;2023-07-20T08:50:25;101520.53;;;21.22;45.18
74627;BME280;63132;52.268;5.192;2023-07-20T08:52:52;101523.00;;;21.00;44.83
74627;BME280;63132;52.268;5.192;2023-07-20T08:55:20;101526.78;;;20.65;44.06
74627;BME280;63132;52.268;5.192;2023-07-20T08:57:49;101517.19;;;20.54;44.11
74627;BME280;63132;52.268;5.192;2023-07-20T09:00:16;101526.50;;;20.35;45.18
74627;BME280;63132;52.268;5.192;2023-07-20T09:02:43;101523.13;;;20.33;44.63
74627;BME280;63132;52.268;5.192;2023-07-20T09:05:10;101514.78;;;20.68;43.43
74627;BME280;63132;52.268;5.192;2023-07-20T09:07:36;101525.94;;;20.56;42.30
74627;BME280;63132;52.268;5.192;2023-07-20T09:10:02;101528.16;;;20.53;41.84
74627;BME280;63132;52.268;5.192;2023-07-20T09:12:33;101526.78;;;20.65;40.30
74627;BME280;63132;52.268;5.192;2023-07-20T09:14:59;101525.38;;;20.86;39.56
74627;BME280;63132;52.268;5.192;2023-07-20T09:17:26;101522.88;;;20.76;38.44
74627;BME280;63132;52.268;5.192;2023-07-20T09:19:51;101519.72;;;20.48;38.56
74627;BME280;63132;52.268;5.192;2023-07-20T09:22:16;101520.47;;;20.81;38.94
74627;BME280;63132;52.268;5.192;2023-07-20T09:24:43;101512.38;;;20.98;38.24
74627;BME280;63132;52.268;5.192;2023-07-20T09:27:08;101514.03;;;20.91;36.25
74627;BME280;63132;52.268;5.192;2023-07-20T09:29:36;101514.69;;;21.41;38.09
74627;BME280;63132;52.268;5.192;2023-07-20T09:32:12;101515.75;;;21.56;34.94
74627;BME280;63132;52.268;5.192;2023-07-20T09:34:37;101509.03;;;21.83;34.87
74627;BME280;63132;52.268;5.192;2023-07-20T09:37:03;101516.34;;;21.74;34.36
74627;BME280;63132;52.268;5.192;2023-07-20T09:39:28;101505.25;;;22.08;35.28
74627;BME280;63132;52.268;5.192;2023-07-20T09:41:54;101509.09;;;22.52;36.20
74627;BME280;63132;52.268;5.192;2023-07-20T09:44:22;101511.38;;;22.64;35.98
74627;BME280;63132;52.268;5.192;2023-07-20T09:46:48;101515.91;;;23.09;36.17
74627;BME280;63132;52.268;5.192;2023-07-20T09:49:14;101516.81;;;23.31;35.42
74627;BME280;63132;52.268;5.192;2023-07-20T09:51:39;101506.72;;;23.62;34.94
74627;BME280;63132;52.268;5.192;2023-07-20T09:54:06;101501.97;;;24.15;35.09
74627;BME280;63132;52.268;5.192;2023-07-20T09:56:32;101506.88;;;24.26;34.65
74627;BME280;63132;52.268;5.192;2023-07-20T09:58:58;101500.16;;;24.22;34.28
74627;BME280;63132;52.268;5.192;2023-07-20T10:01:24;101497.56;;;24.42;33.87
74627;BME280;63132;52.268;5.192;2023-07-20T10:03:53;101495.72;;;24.85;35.25
74627;BME280;63132;52.268;5.192;2023-07-20T10:06:24;101502.47;;;25.52;32.85
74627;BME280;63132;52.268;5.192;2023-07-20T10:08:52;101501.06;;;25.07;33.81
74627;BME280;63132;52.268;5.192;2023-07-20T10:11:18;101494.66;;;25.22;32.48
74627;BME280;63132;52.268;5.192;2023-07-20T10:13:44;101501.63;;;25.51;35.70
74627;BME280;63132;52.268;5.192;2023-07-20T10:16:15;101493.66;;;25.57;34.04
74627;BME280;63132;52.268;5.192;2023-07-20T10:18:51;101493.31;;;25.80;32.89
74627;BME280;63132;52.268;5.192;2023-07-20T10:21:20;101494.97;;;25.74;33.75
74627;BME280;63132;52.268;5.192;2023-07-20T10:23:48;101490.06;;;25.36;32.39
74627;BME280;63132;52.268;5.192;2023-07-20T10:26:14;101488.44;;;25.55;33.59
74627;BME280;63132;52.268;5.192;2023-07-20T10:28:39;101487.72;;;25.12;34.63
74627;BME280;63132;52.268;5.192;2023-07-20T10:31:08;101485.91;;;25.53;34.24
74627;BME280;63132;52.268;5.192;2023-07-20T10:33:35;101485.78;;;24.99;34.24
74627;BME280;63132;52.268;5.192;2023-07-20T10:36:02;101483.78;;;24.86;36.39
74627;BME280;63132;52.268;5.192;2023-07-20T10:38:52;101483.16;;;24.42;35.19
74627;BME280;63132;52.268;5.192;2023-07-20T10:41:20;101482.78;;;23.94;36.15
74627;BME280;63132;52.268;5.192;2023-07-20T10:43:47;101489.31;;;23.78;37.05
74627;BME280;63132;52.268;5.192;2023-07-20T10:46:13;101482.63;;;23.52;37.45
74627;BME280;63132;52.268;5.192;2023-07-20T10:49:02;101479.88;;;23.74;38.98
74627;BME280;63132;52.268;5.192;2023-07-20T10:51:28;101488.75;;;23.83;38.09
74627;BME280;63132;52.268;5.192;2023-07-20T10:53:55;101475.34;;;24.32;37.16
74627;BME280;63132;52.268;5.192;2023-07-20T10:56:23;101468.69;;;24.77;35.30
74627;BME280;63132;52.268;5.192;2023-07-20T10:58:48;101476.00;;;25.18;35.46
74627;BME280;63132;52.268;5.192;2023-07-20T11:01:16;101475.84;;;25.47;35.18
74627;BME280;63132;52.268;5.192;2023-07-20T11:03:42;101468.59;;;25.88;35.39
74627;BME280;63132;52.268;5.192;2023-07-20T11:06:34;101476.50;;;25.63;34.26
74627;BME280;63132;52.268;5.192;2023-07-20T11:09:13;101473.41;;;25.86;34.18
74627;BME280;63132;52.268;5.192;2023-07-20T11:11:49;101472.53;;;26.20;33.86
74627;BME280;63132;52.268;5.192;2023-07-20T11:14:24;101475.28;;;26.13;32.02
74627;BME280;63132;52.268;5.192;2023-07-20T11:16:51;101469.75;;;26.67;32.76
74627;BME280;63132;52.268;5.192;2023-07-20T11:19:23;101469.75;;;26.67;32.06
74627;BME280;63132;52.268;5.192;2023-07-20T11:21:54;101463.00;;;26.70;31.94
74627;BME280;63132;52.268;5.192;2023-07-20T11:24:19;101458.31;;;26.04;31.19
74627;BME280;63132;52.268;5.192;2023-07-20T11:26:54;101463.78;;;25.91;31.51
74627;BME280;63132;52.268;5.192;2023-07-20T11:29:21;101463.75;;;25.97;30.78
74627;BME280;63132;52.268;5.192;2023-07-20T11:31:47;101459.66;;;26.68;31.44
74627;BME280;63132;52.268;5.192;2023-07-20T11:34:14;101456.22;;;26.06;32.36
74627;BME280;63132;52.268;5.192;2023-07-20T11:36:45;101453.81;;;26.51;31.46
74627;BME280;63132;52.268;5.192;2023-07-20T11:39:12;101452.63;;;25.99;31.61
74627;BME280;63132;52.268;5.192;2023-07-20T11:41:38;101454.50;;;26.39;32.35
74627;BME280;63132;52.268;5.192;2023-07-20T11:44:05;101456.59;;;25.62;32.23
74627;BME280;63132;52.268;5.192;2023-07-20T11:46:33;101449.94;;;25.92;31.92
74627;BME280;63132;52.268;5.192;2023-07-20T11:48:59;101451.16;;;26.17;32.59
74627;BME280;63132;52.268;5.192;2023-07-20T11:51:27;101447.56;;;26.30;33.64
74627;BME280;63132;52.268;5.192;2023-07-20T11:53:52;101441.94;;;26.11;32.98
74627;BME280;63132;52.268;5.192;2023-07-20T11:56:18;101438.75;;;26.34;33.92
74627;BME280;63132;52.268;5.192;2023-07-20T11:58:44;101435.03;;;25.54;33.42
74627;BME280;63132;52.268;5.192;2023-07-20T12:01:14;101439.19;;;25.43;33.73
74627;BME280;63132;52.268;5.192;2023-07-20T12:03:42;101438.34;;;25.29;33.91
74627;BME280;63132;52.268;5.192;2023-07-20T12:06:10;101442.59;;;25.72;32.81
74627;BME280;63132;52.268;5.192;2023-07-20T12:08:40;101436.53;;;25.77;34.54
74627;BME280;63132;52.268;5.192;2023-07-20T12:11:07;101436.75;;;25.75;34.15
74627;BME280;63132;52.268;5.192;2023-07-20T12:13:41;101443.00;;;25.69;33.76
74627;BME280;63132;52.268;5.192;2023-07-20T12:16:14;101438.81;;;26.00;35.05
74627;BME280;63132;52.268;5.192;2023-07-20T12:18:41;101432.03;;;26.44;33.30
74627;BME280;63132;52.268;5.192;2023-07-20T12:21:07;101435.13;;;26.54;33.31
74627;BME280;63132;52.268;5.192;2023-07-20T12:23:40;101431.59;;;26.33;32.76
74627;BME280;63132;52.268;5.192;2023-07-20T12:26:09;101425.16;;;26.14;33.09
74627;BME280;63132;52.268;5.192;2023-07-20T12:28:44;101421.97;;;26.24;31.53
74627;BME280;63132;52.268;5.192;2023-07-20T12:31:10;101420.72;;;26.20;31.86
74627;BME280;63132;52.268;5.192;2023-07-20T12:33:36;101434.56;;;25.37;35.06
74627;BME280;63132;52.268;5.192;2023-07-20T12:36:03;101425.16;;;24.70;37.51
74627;BME280;63132;52.268;5.192;2023-07-20T12:38:29;101425.34;;;24.26;38.50
74627;BME280;63132;52.268;5.192;2023-07-20T12:40:56;101424.66;;;24.53;36.11
74627;BME280;63132;52.268;5.192;2023-07-20T12:43:21;64071.53;;;-148.47;100.00
74627;BME280;63132;52.268;5.192;2023-07-20T12:45:47;101428.91;;;24.69;38.17
74627;BME280;63132;52.268;5.192;2023-07-20T12:48:12;101413.16;;;25.13;35.87
74627;BME280;63132;52.268;5.192;2023-07-20T12:50:37;101418.63;;;25.13;34.51
74627;BME280;63132;52.268;5.192;2023-07-20T12:53:03;101420.06;;;25.09;34.40
74627;BME280;63132;52.268;5.192;2023-07-20T12:55:29;101426.63;;;25.56;32.74